Time;durP1;ratioP1;P1;durP2;ratioP2;P2;SDS_P1;SDS_P2;PMS_P1;PMS_P2;Temp;Humidity;BMP_temperature;BMP_pressure;BME280_temperature;BME280_humidity;BME280_pressure;Samples;Min_cycle;Max_cycle;Signal;HPM_P1;HPM_P2
2021/12/25 00:00:15;;;;;;;3.72;0.75;;;;;;;-1.17;57.42;100449.78;4792239;29;20057;-83
2021/12/25 00:02:41;;;;;;;6.32;0.70;;;;;;;-1.36;57.49;100455.78;4820842;29;20061;-83
2021/12/25 00:05:08;;;;;;;3.33;0.52;;;;;;;-1.59;57.50;100419.97;4823230;29;20031;-82
2021/12/25 00:07:35;;;;;;;1.90;0.60;;;;;;;-1.53;57.76;100451.09;4835781;29;20062;-82
2021/12/25 00:10:01;;;;;;;2.60;0.80;;;;;;;-1.88;58.72;100414.53;4839365;29;20030;-82
2021/12/25 00:12:27;;;;;;;3.35;0.60;;;;;;;-1.57;59.35;100450.53;4839693;29;20061;-82
2021/12/25 00:14:54;;;;;;;1.63;0.68;;;;;;;-2.18;59.13;100377.41;4842069;29;20069;-82
2021/12/25 00:17:19;;;;;;;3.08;0.55;;;;;;;-1.93;59.54;100449.19;4817995;29;20034;-82
2021/12/25 00:19:45;;;;;;;2.03;0.70;;;;;;;-1.97;60.20;100455.66;4823974;29;20365;-82
2021/12/25 00:22:10;;;;;;;3.35;0.60;;;;;;;-2.09;60.65;100451.41;4839484;29;20149;-82
2021/12/25 00:24:42;;;;;;;1.85;0.52;;;;;;;-2.21;61.05;100471.72;4839326;29;20034;-83
2021/12/25 00:27:23;;;;;;;2.20;0.77;;;;;;;-2.51;62.02;100475.88;4838159;29;20478;-83
2021/12/25 00:30:07;;;;;;;2.22;0.80;;;;;;;-2.63;63.11;100474.19;4825444;29;20098;-83
2021/12/25 00:35:17;;;;;;;2.05;0.50;;;;;;;-2.36;62.97;100482.50;4832138;29;20033;-83
2021/12/25 00:37:44;;;;;;;3.20;0.52;;;;;;;-2.22;61.97;100475.28;4819745;29;20428;-81
2021/12/25 00:40:09;;;;;;;1.33;0.40;;;;;;;-2.38;61.86;100489.72;4819464;29;20051;-82
2021/12/25 00:42:35;;;;;;;2.50;0.57;;;;;;;-2.48;63.19;100499.34;4829202;29;20065;-83
2021/12/25 00:45:00;;;;;;;3.35;0.85;;;;;;;-2.72;63.93;100493.34;4807357;29;20037;-82
2021/12/25 00:47:26;;;;;;;4.15;0.80;;;;;;;-2.97;63.76;100490.03;4842120;29;20026;-83
2021/12/25 00:49:51;;;;;;;2.67;0.60;;;;;;;-3.18;64.21;100481.16;4827194;29;20031;-82
2021/12/25 00:52:17;;;;;;;2.28;0.73;;;;;;;-3.24;64.98;100479.03;4803129;29;20049;-82
2021/12/25 00:54:43;;;;;;;2.58;0.70;;;;;;;-3.17;65.22;100510.00;4802910;29;20045;-83
2021/12/25 00:57:09;;;;;;;1.27;0.60;;;;;;;-3.23;65.56;100499.13;4828265;29;20022;-83
2021/12/25 00:59:34;;;;;;;1.65;0.60;;;;;;;-3.37;65.78;100518.59;4837429;29;20034;-83
2021/12/25 01:01:59;;;;;;;1.45;0.60;;;;;;;-3.55;66.22;100505.03;4836975;29;20038;-82
2021/12/25 01:04:25;;;;;;;2.35;0.60;;;;;;;-3.35;66.07;100528.03;4820881;29;20088;-82
2021/12/25 01:06:51;;;;;;;3.35;0.80;;;;;;;-3.49;65.78;100530.03;4836440;29;20041;-82
2021/12/25 01:09:17;;;;;;;1.88;0.50;;;;;;;-3.57;66.40;100539.34;4837880;29;20105;-83
2021/12/25 01:11:46;;;;;;;3.45;0.93;;;;;;;-3.76;66.33;100528.50;4837474;29;20061;-82
2021/12/25 01:14:23;;;;;;;1.65;0.65;;;;;;;-3.86;66.26;100549.38;4836392;29;20027;-82
2021/12/25 01:25:02;;;;;;;3.10;1.08;;;;;;;-4.28;66.55;100558.59;4819983;29;20054;-81
2021/12/25 01:36:11;;;;;;;1.65;0.88;;;;;;;-4.62;67.79;100557.53;4833653;29;20121;-82
2021/12/25 01:41:12;;;;;;;3.05;0.85;;;;;;;-4.67;68.09;100580.63;4800683;29;20050;-82
2021/12/25 01:48:57;;;;;;;2.40;0.60;;;;;;;-4.83;68.29;100571.19;4832725;29;20067;-82
2021/12/25 01:51:22;;;;;;;1.65;0.70;;;;;;;-4.86;68.76;100573.19;4831863;29;20093;-82
2021/12/25 01:53:48;;;;;;;1.90;0.90;;;;;;;-4.79;68.99;100590.19;4832265;29;20042;-82
2021/12/25 01:56:15;;;;;;;3.70;0.90;;;;;;;-5.04;69.32;100555.13;4831733;29;20042;-81
2021/12/25 01:58:40;;;;;;;5.25;1.02;;;;;;;-4.88;70.24;100594.28;4831330;29;20163;-82
2021/12/25 02:01:09;;;;;;;5.20;1.05;;;;;;;-5.07;70.59;100565.84;4833189;29;20037;-81
2021/12/25 02:03:37;;;;;;;3.67;0.77;;;;;;;-5.05;70.93;100573.63;4831852;29;20031;-82
2021/12/25 02:06:05;;;;;;;1.80;0.90;;;;;;;-4.96;71.50;100593.97;4831524;29;20041;-81
2021/12/25 02:08:31;;;;;;;4.65;0.98;;;;;;;-4.87;71.56;100598.56;4840810;29;20049;-82
2021/12/25 02:10:57;;;;;;;3.83;1.00;;;;;;;-4.75;71.40;100595.13;4832979;29;20046;-81
2021/12/25 02:13:23;;;;;;;2.20;0.70;;;;;;;-4.61;70.74;100598.56;4831778;29;20050;-82
2021/12/25 02:15:52;;;;;;;2.25;0.88;;;;;;;-4.58;71.41;100603.63;4830884;29;20022;-82
2021/12/25 02:23:22;;;;;;;2.17;0.57;;;;;;;-4.50;69.24;100609.19;4833517;29;20039;-82
2021/12/25 02:25:50;;;;;;;1.75;0.70;;;;;;;-4.56;69.10;100594.69;4834156;29;20023;-82
2021/12/25 02:28:17;;;;;;;2.28;0.60;;;;;;;-4.23;68.50;100629.22;4835951;29;20368;-82
2021/12/25 02:30:46;;;;;;;1.42;0.70;;;;;;;-4.26;68.39;100620.56;4835687;29;20034;-81
2021/12/25 02:33:12;;;;;;;2.58;0.75;;;;;;;-4.25;68.74;100627.50;4836852;29;20120;-82
2021/12/25 02:35:37;;;;;;;2.25;0.80;;;;;;;-4.27;69.11;100624.16;4836004;29;20057;-82
2021/12/25 02:38:04;;;;;;;1.25;0.50;;;;;;;-4.34;69.58;100617.66;4835463;29;20038;-81
2021/12/25 02:40:30;;;;;;;8.70;1.08;;;;;;;-4.90;70.23;100535.84;4836936;29;20117;-82
2021/12/25 02:42:56;;;;;;;1.80;0.70;;;;;;;-4.49;70.49;100630.06;4835905;29;20065;-82
2021/12/25 02:45:22;;;;;;;1.85;0.77;;;;;;;-4.57;71.12;100642.03;4835255;29;20038;-82
2021/12/25 02:47:51;;;;;;;2.88;0.85;;;;;;;-4.64;71.24;100639.00;4835078;29;20038;-83
2021/12/25 02:50:28;;;;;;;1.75;0.63;;;;;;;-4.70;71.46;100635.97;4835915;29;20034;-82
2021/12/25 02:52:55;;;;;;;1.55;0.60;;;;;;;-4.78;71.54;100629.44;4834511;29;20040;-82
2021/12/25 02:55:20;;;;;;;1.15;0.60;;;;;;;-4.84;71.72;100629.03;4835110;29;20111;-82
2021/12/25 02:57:50;;;;;;;2.08;0.60;;;;;;;-4.96;71.44;100625.47;4834918;29;20041;-82
2021/12/25 03:00:21;;;;;;;2.08;0.80;;;;;;;-5.04;71.67;100617.25;4818535;29;20091;-82
2021/12/25 03:02:47;;;;;;;1.35;0.57;;;;;;;-4.97;71.32;100631.63;4833650;29;20030;-80
2021/12/25 03:05:13;;;;;;;2.95;0.70;;;;;;;-5.03;71.31;100630.28;4833696;29;20034;-82
2021/12/25 03:07:39;;;;;;;1.55;0.75;;;;;;;-5.03;71.34;100643.41;4832725;29;20035;-81
2021/12/25 03:10:06;;;;;;;3.13;0.75;;;;;;;-5.17;71.45;100643.47;4833303;29;20087;-81
2021/12/25 03:12:37;;;;;;;3.05;0.70;;;;;;;-5.34;71.03;100621.00;4832789;29;20054;-82
2021/12/25 03:15:13;;;;;;;0.80;0.47;;;;;;;-5.23;70.58;100633.41;4839701;29;20034;-81
2021/12/25 03:17:39;;;;;;;2.45;1.20;;;;;;;-5.16;70.10;100649.59;4835124;29;20038;-81
2021/12/25 03:20:07;;;;;;;1.48;0.68;;;;;;;-5.17;69.69;100650.50;4831151;29;20071;-82
2021/12/25 03:22:33;;;;;;;3.67;0.70;;;;;;;-5.23;69.76;100651.78;4832923;29;20030;-81
2021/12/25 03:24:59;;;;;;;1.95;0.60;;;;;;;-5.69;68.97;100578.78;4827057;29;20041;-82
2021/12/25 03:27:24;;;;;;;1.02;0.45;;;;;;;-5.30;69.19;100651.31;4834859;29;20034;-81
2021/12/25 03:29:50;;;;;;;2.85;0.70;;;;;;;-5.35;68.99;100650.78;4832757;29;20042;-81
2021/12/25 03:32:16;;;;;;;3.50;0.50;;;;;;;-5.39;68.53;100638.00;4830920;29;20033;-82
2021/12/25 03:34:42;;;;;;;0.77;0.40;;;;;;;-5.37;68.79;100639.56;4830296;29;20042;-82
2021/12/25 03:37:07;;;;;;;0.90;0.50;;;;;;;-5.30;69.33;100653.94;4829951;29;20437;-81
2021/12/25 03:39:33;;;;;;;1.23;0.60;;;;;;;-5.68;69.29;100609.28;4830313;29;20129;-82
2021/12/25 03:41:58;;;;;;;1.50;0.70;;;;;;;-5.55;69.83;100648.63;4831898;29;20039;-82
2021/12/25 03:44:25;;;;;;;2.75;0.80;;;;;;;-5.67;70.49;100645.00;4831894;29;20037;-81
2021/12/25 03:46:52;;;;;;;0.50;0.30;;;;;;;-5.70;70.92;100664.41;4831221;29;20031;-82
2021/12/25 03:49:34;;;;;;;2.15;0.57;;;;;;;-5.70;70.65;100659.16;4831358;29;20449;-82
2021/12/25 03:57:42;;;;;;;1.83;0.60;;;;;;;-6.00;71.46;100663.75;4823569;29;20037;-82
2021/12/25 04:00:09;;;;;;;2.38;0.60;;;;;;;-6.17;71.84;100656.97;4830852;29;20071;-82
2021/12/25 04:02:50;;;;;;;1.58;0.40;;;;;;;-6.27;71.85;100667.16;4828376;29;20361;-81
2021/12/25 04:05:18;;;;;;;1.92;0.50;;;;;;;-6.40;72.59;100669.69;4829552;29;20034;-82
2021/12/25 04:08:31;;;;;;;2.13;0.50;;;;;;;-6.38;72.20;100680.09;4831065;29;20053;-82
2021/12/25 04:10:37;;;;;;;1.15;0.40;;;;;;;-6.50;72.19;100668.56;4825416;29;20073;-81
2021/12/25 04:13:06;;;;;;;1.52;0.55;;;;;;;-6.55;72.71;100670.63;4826971;29;20026;-82
2021/12/25 04:15:32;;;;;;;1.98;0.57;;;;;;;-6.54;73.26;100674.09;4826310;29;20113;-82
2021/12/25 04:17:58;;;;;;;1.17;0.50;;;;;;;-6.52;73.10;100690.53;4828573;29;20045;-82
2021/12/25 04:20:23;;;;;;;1.48;0.52;;;;;;;-6.55;73.43;100693.34;4830091;29;20034;-82
2021/12/25 04:22:58;;;;;;;2.50;0.40;;;;;;;-6.59;73.23;100697.06;4837168;29;20053;-82
2021/12/25 04:25:28;;;;;;;1.15;0.70;;;;;;;-6.74;73.43;100678.75;4828208;29;20449;-81
2021/12/25 04:27:56;;;;;;;1.02;0.40;;;;;;;-6.67;74.01;100706.22;4828886;29;20064;-80
2021/12/25 04:30:35;;;;;;;1.77;0.60;;;;;;;-6.77;74.20;100710.31;4828769;29;20030;-81
2021/12/25 05:05:21;;;;;;;1.35;0.40;;;;;;;-7.39;76.46;100722.63;4824721;29;20057;-81
2021/12/25 05:07:47;;;;;;;1.05;0.50;;;;;;;-7.54;76.50;100711.28;4810486;29;20043;-81
2021/12/25 05:10:12;;;;;;;1.20;0.60;;;;;;;-7.46;76.24;100722.13;4807728;29;20335;-82
2021/12/25 05:12:37;;;;;;;1.77;0.70;;;;;;;-7.49;77.10;100724.09;4809256;29;20069;-81
2021/12/25 05:15:03;;;;;;;2.65;0.68;;;;;;;-7.48;77.10;100730.97;4804918;29;20042;-81
2021/12/25 05:17:29;;;;;;;1.88;0.63;;;;;;;-7.54;77.20;100726.13;4828375;29;20369;-81
2021/12/25 05:19:55;;;;;;;0.85;0.40;;;;;;;-7.60;77.34;100727.28;4826733;29;20034;-81
2021/12/25 05:22:21;;;;;;;1.38;0.40;;;;;;;-7.62;77.61;100727.38;4826555;29;20488;-81
2021/12/25 05:24:46;;;;;;;1.35;0.60;;;;;;;-7.60;77.87;100724.69;4828810;29;20030;-82
2021/12/25 05:27:14;;;;;;;1.52;0.68;;;;;;;-7.59;78.06;100716.75;4811708;29;20030;-81
2021/12/25 05:29:45;;;;;;;1.90;0.65;;;;;;;-7.58;77.72;100718.44;4817845;29;20026;-81
2021/12/25 05:32:11;;;;;;;3.30;0.60;;;;;;;-7.54;77.90;100729.56;4815347;29;20034;-82
2021/12/25 05:34:36;;;;;;;4.00;0.88;;;;;;;-7.63;78.29;100736.13;4826486;29;20118;-81
2021/12/25 05:37:03;;;;;;;0.82;0.43;;;;;;;-7.70;78.41;100737.41;4827663;29;20034;-81
2021/12/25 05:39:29;;;;;;;2.03;0.50;;;;;;;-7.89;78.92;100729.72;4829242;29;20133;-82
2021/12/25 05:41:54;;;;;;;2.45;0.60;;;;;;;-7.88;79.16;100754.06;4812365;29;20076;-82
2021/12/25 05:44:20;;;;;;;0.85;0.38;;;;;;;-7.92;79.29;100747.34;4811625;29;20042;-81
2021/12/25 05:46:45;;;;;;;1.20;0.30;;;;;;;-8.05;79.18;100732.31;4827081;29;20081;-82
2021/12/25 05:49:11;;;;;;;1.17;0.50;;;;;;;-7.90;79.14;100748.09;4828385;29;20426;-81
2021/12/25 05:51:36;;;;;;;1.95;0.50;;;;;;;-7.90;79.68;100750.72;4826789;29;20117;-81
2021/12/25 05:54:01;;;;;;;0.80;0.43;;;;;;;-7.92;80.01;100752.56;4828464;29;20041;-81
2021/12/25 05:56:27;;;;;;;1.52;0.50;;;;;;;-7.96;79.20;100756.25;4827615;29;20034;-82
2021/12/25 05:58:53;;;;;;;2.55;0.30;;;;;;;-7.97;80.28;100759.81;4827556;29;20369;-81
2021/12/25 06:01:18;;;;;;;1.48;0.40;;;;;;;-7.98;80.50;100742.44;4830444;29;20037;-82
2021/12/25 06:03:44;;;;;;;1.00;0.38;;;;;;;-8.00;80.20;100739.91;4829315;29;20045;-81
2021/12/25 06:06:09;;;;;;;0.77;0.40;;;;;;;-8.01;80.30;100743.47;4828861;29;20093;-82
2021/12/25 06:08:35;;;;;;;1.80;0.57;;;;;;;-8.09;80.23;100750.84;4831666;29;20038;-82
2021/12/25 06:11:02;;;;;;;0.80;0.30;;;;;;;-8.17;80.36;100737.38;4840148;29;20053;-82
2021/12/25 06:13:29;;;;;;;0.75;0.40;;;;;;;-8.15;80.24;100752.00;4845199;29;20042;-82
2021/12/25 06:15:56;;;;;;;0.98;0.32;;;;;;;-8.22;81.05;100747.19;4821833;29;20337;-82
2021/12/25 06:18:21;;;;;;;0.93;0.40;;;;;;;-8.26;80.69;100746.50;4834838;29;20475;-82
2021/12/25 06:20:47;;;;;;;0.93;0.40;;;;;;;-8.24;81.28;100747.28;4832071;29;20092;-81
2021/12/25 06:23:12;;;;;;;2.45;0.50;;;;;;;-8.21;81.05;100744.53;4831042;29;20030;-82
2021/12/25 06:25:38;;;;;;;0.65;0.20;;;;;;;-8.18;81.23;100743.50;4830731;29;20033;-80
2021/12/25 06:28:04;;;;;;;0.98;0.40;;;;;;;-8.17;80.92;100751.25;4829292;29;20453;-81
2021/12/25 06:30:29;;;;;;;2.00;0.50;;;;;;;-8.44;81.32;100718.78;4813413;29;20026;-80
2021/12/25 06:32:55;;;;;;;1.70;0.52;;;;;;;-8.33;81.49;100732.94;4830638;29;20039;-80
2021/12/25 06:35:20;;;;;;;0.80;0.30;;;;;;;-8.18;81.47;100748.72;4831793;29;20034;-81
2021/12/25 06:37:47;;;;;;;1.20;0.50;;;;;;;-8.16;81.17;100745.09;4835694;29;20050;-80
2021/12/25 06:40:18;;;;;;;0.90;0.50;;;;;;;-8.17;81.08;100748.66;4827466;29;20437;-82
2021/12/25 06:42:45;;;;;;;0.73;0.40;;;;;;;-8.35;81.66;100726.94;4826336;29;20342;-80
2021/12/25 06:45:10;;;;;;;2.47;0.57;;;;;;;-8.43;81.42;100725.72;4830416;29;20541;-81
2021/12/25 06:47:36;;;;;;;2.95;0.75;;;;;;;-8.45;81.61;100737.97;4829381;29;20033;-81
2021/12/25 06:50:04;;;;;;;3.08;0.80;;;;;;;-8.48;81.46;100735.53;4834906;29;20045;-80
2021/12/25 06:52:29;;;;;;;1.40;0.85;;;;;;;-8.57;82.52;100737.72;4831452;29;20034;-80
2021/12/25 06:54:54;;;;;;;2.38;1.20;;;;;;;-8.66;82.62;100740.78;4825217;29;20041;-81
2021/12/25 06:57:20;;;;;;;2.30;1.08;;;;;;;-8.86;82.54;100714.88;4827046;29;20034;-81
2021/12/25 06:59:46;;;;;;;2.50;1.02;;;;;;;-8.75;82.14;100733.41;4829548;29;20042;-79
2021/12/25 07:02:12;;;;;;;2.08;0.98;;;;;;;-8.78;82.36;100729.19;4828314;29;20377;-81
2021/12/25 07:04:38;;;;;;;1.33;0.80;;;;;;;-8.72;81.87;100741.09;4826452;29;20038;-81
2021/12/25 07:07:04;;;;;;;2.10;0.80;;;;;;;-8.76;82.81;100729.13;4829145;29;20461;-80
2021/12/25 07:09:29;;;;;;;1.60;0.43;;;;;;;-8.91;82.49;100704.66;4815818;29;20441;-81
2021/12/25 07:11:55;;;;;;;1.50;0.40;;;;;;;-8.67;83.03;100743.47;4809441;29;20138;-81
2021/12/25 07:14:20;;;;;;;2.30;0.60;;;;;;;-8.61;83.53;100744.00;4823596;29;20038;-81
2021/12/25 07:16:46;;;;;;;1.67;0.63;;;;;;;-8.63;83.05;100745.00;4813898;29;20030;-81
2021/12/25 07:19:15;;;;;;;1.60;1.10;;;;;;;-8.92;82.62;100713.41;4830474;29;20081;-81
2021/12/25 07:21:40;;;;;;;3.47;1.38;;;;;;;-8.83;83.04;100746.00;4814060;29;20373;-81
2021/12/25 07:24:08;;;;;;;7.57;3.00;;;;;;;-8.87;83.42;100750.53;4830098;29;20030;-81
2021/12/25 07:26:37;;;;;;;4.50;2.55;;;;;;;-8.89;83.28;100757.59;4829531;29;20018;-80
2021/12/25 07:29:03;;;;;;;4.15;2.13;;;;;;;-8.99;83.32;100746.75;4812770;29;20031;-81
2021/12/25 07:31:28;;;;;;;7.20;3.13;;;;;;;-8.95;83.54;100760.50;4810385;29;20034;-81
2021/12/25 07:33:54;;;;;;;5.38;2.60;;;;;;;-9.12;83.36;100743.06;4810848;29;20031;-81
2021/12/25 07:36:19;;;;;;;4.97;2.50;;;;;;;-9.12;83.27;100763.09;4810272;29;20422;-81
2021/12/25 07:38:45;;;;;;;4.53;2.45;;;;;;;-9.18;83.34;100755.56;4827200;29;20042;-79
2021/12/25 07:41:10;;;;;;;3.13;1.80;;;;;;;-9.34;83.41;100751.06;4833124;29;20402;-82
2021/12/25 07:43:36;;;;;;;4.18;1.58;;;;;;;-9.37;83.81;100747.78;4832452;29;20380;-81
2021/12/25 07:46:02;;;;;;;4.93;2.00;;;;;;;-9.35;83.38;100752.00;4828920;29;20059;-81
2021/12/25 07:48:27;;;;;;;6.10;2.30;;;;;;;-9.32;83.81;100751.03;4812915;29;20100;-81
2021/12/25 07:50:54;;;;;;;6.95;2.83;;;;;;;-9.50;83.11;100724.94;4810062;29;20034;-80
2021/12/25 07:53:21;;;;;;;4.40;2.10;;;;;;;-9.35;83.82;100745.97;4833194;29;20041;-81
2021/12/25 07:55:47;;;;;;;5.38;2.45;;;;;;;-9.27;83.23;100754.22;4828185;29;20053;-80
2021/12/25 07:58:13;;;;;;;4.50;2.10;;;;;;;-9.56;83.99;100714.81;4826921;29;21353;-81
2021/12/25 08:00:39;;;;;;;5.55;2.53;;;;;;;-9.30;83.64;100754.41;4808481;29;20473;-77
2021/12/25 08:03:04;;;;;;;6.65;2.40;;;;;;;-9.22;83.74;100762.69;4806873;29;20031;-78
2021/12/25 08:05:31;;;;;;;4.55;2.67;;;;;;;-9.17;83.42;100776.34;4809703;29;20404;-78
2021/12/25 08:07:56;;;;;;;6.53;3.08;;;;;;;-9.23;83.48;100758.41;4807798;29;20043;-78
2021/12/25 08:10:22;;;;;;;13.50;8.77;;;;;;;-9.05;83.58;100778.34;4806657;29;20127;-78
2021/12/25 08:12:55;;;;;;;6.38;4.30;;;;;;;-9.08;83.73;100762.84;4818265;29;20072;-79
2021/12/25 08:15:25;;;;;;;8.27;3.50;;;;;;;-8.95;83.24;100768.31;4824776;29;20461;-77
2021/12/25 08:17:52;;;;;;;4.82;2.28;;;;;;;-8.94;83.61;100779.56;4825750;29;20116;-79
2021/12/25 08:20:18;;;;;;;2.67;1.90;;;;;;;-8.93;84.33;100786.50;4825567;29;20026;-78
2021/12/25 08:22:44;;;;;;;3.45;2.30;;;;;;;-8.94;83.95;100784.78;4825476;29;20030;-79
2021/12/25 08:25:12;;;;;;;5.55;2.88;;;;;;;-8.96;83.85;100781.44;4820958;29;20053;-78
2021/12/25 08:27:38;;;;;;;3.85;1.85;;;;;;;-8.95;83.84;100789.16;4822196;29;20038;-79
2021/12/25 08:30:07;;;;;;;5.10;2.55;;;;;;;-8.94;84.41;100779.56;4823981;29;20030;-78
2021/12/25 08:32:33;;;;;;;5.45;2.72;;;;;;;-8.94;84.60;100777.81;4825719;29;20381;-77
2021/12/25 08:34:58;;;;;;;3.55;1.70;;;;;;;-8.89;84.25;100778.44;4824628;29;20038;-77
2021/12/25 08:37:24;;;;;;;3.85;2.05;;;;;;;-8.85;84.29;100787.78;4810674;29;20477;-77
2021/12/25 08:39:51;;;;;;;5.57;2.22;;;;;;;-8.83;84.76;100779.91;4821316;29;20042;-77
2021/12/25 08:42:19;;;;;;;3.90;2.22;;;;;;;-8.82;84.94;100778.97;4822033;29;20200;-78
2021/12/25 08:47:20;;;;;;;4.40;2.20;;;;;;;-8.70;84.55;100783.59;4807114;29;20026;-78
2021/12/25 08:49:47;;;;;;;6.28;2.53;;;;;;;-8.80;84.65;100756.28;4808726;29;20088;-78
2021/12/25 08:52:15;;;;;;;4.65;2.50;;;;;;;-8.63;85.04;100779.75;4823986;29;20037;-80
2021/12/25 08:54:42;;;;;;;7.18;3.40;;;;;;;-8.58;85.20;100777.75;4825538;29;20101;-79
2021/12/25 08:57:09;;;;;;;6.85;3.78;;;;;;;-8.60;84.74;100770.94;4811766;29;20030;-79
2021/12/25 08:59:38;;;;;;;8.38;4.50;;;;;;;-8.56;85.54;100788.94;4826150;29;20354;-79
2021/12/25 09:02:09;;;;;;;8.60;4.15;;;;;;;-8.50;85.84;100794.78;4817270;29;20034;-78
2021/12/25 09:04:36;;;;;;;7.75;4.03;;;;;;;-8.60;84.85;100771.78;4807220;29;20462;-78
2021/12/25 09:07:02;;;;;;;7.40;4.15;;;;;;;-8.49;85.58;100786.03;4819144;29;20026;-80
2021/12/25 09:09:27;;;;;;;5.13;2.72;;;;;;;-8.39;85.55;100793.31;4823946;29;20031;-78
2021/12/25 09:11:53;;;;;;;19.55;11.43;;;;;;;-8.37;85.53;100769.72;4815271;29;20061;-78
2021/12/25 09:14:18;;;;;;;14.00;8.90;;;;;;;-8.14;85.02;100794.63;4826030;29;20118;-80
2021/12/25 09:16:44;;;;;;;17.70;7.95;;;;;;;-8.18;85.43;100780.88;4793384;29;20041;-77
2021/12/25 09:19:09;;;;;;;12.48;6.82;;;;;;;-8.04;85.85;100788.84;4825647;29;20122;-81
2021/12/25 09:21:36;;;;;;;9.13;5.00;;;;;;;-8.05;85.23;100781.09;4827948;29;20049;-75
2021/12/25 09:24:02;;;;;;;7.70;4.00;;;;;;;-8.11;85.32;100760.50;4825324;29;20383;-77
2021/12/25 09:26:27;;;;;;;7.28;4.05;;;;;;;-7.78;85.11;100788.38;4824241;29;20026;-76
2021/12/25 09:28:53;;;;;;;6.70;3.72;;;;;;;-7.65;85.71;100786.78;4825406;29;20155;-77
2021/12/25 09:31:18;;;;;;;7.43;3.72;;;;;;;-7.43;85.45;100784.69;4808750;29;20034;-76
2021/12/25 09:33:44;;;;;;;11.93;5.07;;;;;;;-7.39;85.21;100775.75;4804845;29;20039;-77
2021/12/25 09:36:09;;;;;;;9.30;5.32;;;;;;;-7.30;85.64;100791.88;4824977;29;20037;-77
2021/12/25 09:38:35;;;;;;;18.10;8.55;;;;;;;-7.47;86.19;100769.28;4827465;29;20125;-78
2021/12/25 09:41:03;;;;;;;15.13;7.38;;;;;;;-7.35;86.51;100784.25;4828838;29;20044;-78
2021/12/25 09:43:28;;;;;;;9.45;5.80;;;;;;;-7.27;86.20;100795.16;4818884;29;20046;-77
2021/12/25 09:45:55;;;;;;;11.85;5.95;;;;;;;-7.19;86.30;100787.69;4810088;29;20042;-78
2021/12/25 09:48:21;;;;;;;15.80;9.55;;;;;;;-7.56;86.62;100715.75;4809736;29;20049;-78
2021/12/25 09:50:46;;;;;;;7.43;4.22;;;;;;;-7.00;86.99;100795.38;4815724;29;20022;-77
2021/12/25 09:53:14;;;;;;;5.50;2.70;;;;;;;-6.82;87.06;100788.25;4829155;29;20038;-78
2021/12/25 09:55:40;;;;;;;7.32;4.82;;;;;;;-6.89;86.65;100760.75;4827773;29;20035;-77
2021/12/25 09:58:06;;;;;;;14.35;5.93;;;;;;;-6.64;87.18;100796.81;4823714;29;20030;-78
2021/12/25 10:00:34;;;;;;;28.42;15.65;;;;;;;-6.75;87.34;100776.50;4810503;29;20110;-78
2021/12/25 10:03:00;;;;;;;32.38;16.00;;;;;;;-6.97;87.49;100727.19;4817480;29;20022;-78
2021/12/25 10:05:28;;;;;;;31.70;18.90;;;;;;;-6.48;87.31;100789.75;4827642;29;20042;-79
2021/12/25 10:08:13;;;;;;;14.73;7.38;;;;;;;-6.40;87.78;100778.81;4810803;29;20023;-78
2021/12/25 10:10:46;;;;;;;17.45;7.57;;;;;;;-6.28;87.62;100764.16;4815244;29;20058;-80
2021/12/25 10:13:20;;;;;;;14.55;7.72;;;;;;;-6.02;87.09;100779.13;4809946;29;20460;-79
2021/12/25 10:15:46;;;;;;;12.48;6.80;;;;;;;-6.05;87.70;100760.13;4821728;29;20049;-78
2021/12/25 10:18:11;;;;;;;9.15;5.60;;;;;;;-5.95;87.36;100766.50;4825816;29;20038;-80
2021/12/25 10:20:37;;;;;;;18.27;8.38;;;;;;;-5.72;87.18;100778.97;4826545;29;20042;-78
2021/12/25 10:23:13;;;;;;;15.02;8.25;;;;;;;-5.61;87.36;100772.22;4827951;29;20034;-79
2021/12/25 10:25:51;;;;;;;15.68;5.70;;;;;;;-5.64;87.23;100739.19;4828096;29;20022;-79
2021/12/25 10:28:26;;;;;;;39.42;24.55;;;;;;;-5.36;87.24;100755.78;4832973;29;20034;-79
2021/12/25 10:31:00;;;;;;;23.15;12.40;;;;;;;-5.74;87.45;100681.25;4832715;29;20057;-79
2021/12/25 10:33:44;;;;;;;37.75;24.27;;;;;;;-5.10;87.47;100780.31;4826956;29;20444;-78
2021/12/25 10:36:40;;;;;;;14.10;8.27;;;;;;;-4.88;87.81;100779.78;4840005;29;20048;-79
2021/12/25 10:39:07;;;;;;;15.57;7.20;;;;;;;-4.85;87.55;100772.53;4824315;29;20031;-79
2021/12/25 10:41:36;;;;;;;17.00;7.50;;;;;;;-4.88;87.90;100756.16;4828079;29;20087;-78
2021/12/25 10:44:21;;;;;;;14.52;7.80;;;;;;;-4.67;87.96;100773.09;4826907;29;20054;-78
2021/12/25 10:47:04;;;;;;;18.02;8.68;;;;;;;-4.59;88.02;100738.47;4829161;29;20027;-79
2021/12/25 10:49:34;;;;;;;17.27;9.57;;;;;;;-4.21;87.81;100766.53;4827239;29;20038;-78
2021/12/25 10:52:42;;;;;;;49.33;25.95;;;;;;;-3.99;87.91;100756.22;4829450;29;20026;-79
2021/12/25 10:55:28;;;;;;;14.38;8.48;;;;;;;-3.78;88.36;100751.25;4827661;29;20098;-81
2021/12/25 10:57:57;;;;;;;8.05;5.20;;;;;;;-3.56;88.38;100747.94;4825354;29;20050;-79
2021/12/25 11:00:30;;;;;;;6.18;3.28;;;;;;;-3.45;88.18;100740.09;4827123;29;20122;-79
2021/12/25 11:03:02;;;;;;;7.63;4.78;;;;;;;-3.26;88.17;100758.03;4827243;29;20050;-77
2021/12/25 11:05:30;;;;;;;8.05;3.20;;;;;;;-3.15;88.26;100746.72;4827773;29;20370;-78
2021/12/25 11:08:10;;;;;;;79.85;28.15;;;;;;;-3.04;89.09;100743.34;4827007;29;20058;-78
2021/12/25 11:11:02;;;;;;;6.25;2.38;;;;;;;-2.13;90.27;100732.88;4827451;29;20061;-78
2021/12/25 11:13:51;;;;;;;2.47;1.35;;;;;;;-1.34;89.48;100733.63;4828151;29;20065;-78
2021/12/25 11:16:31;;;;;;;4.93;2.83;;;;;;;-0.89;87.36;100733.50;4846596;29;20041;-83
2021/12/25 11:19:05;;;;;;;4.57;2.55;;;;;;;-0.47;84.79;100733.50;4847748;29;20043;-81
2021/12/25 11:21:45;;;;;;;1.13;0.50;;;;;;;-0.22;83.04;100732.25;4864508;24;20042;-84
2021/12/25 11:26:49;;;;;;;6.57;0.95;;;;;;;0.31;81.96;100760.34;5054457;24;20065;-84
2021/12/25 11:29:17;;;;;;;1.98;0.40;;;;;;;0.33;79.32;100739.84;5231135;24;20073;-80
2021/12/25 11:31:45;;;;;;;2.42;0.43;;;;;;;0.57;78.21;100742.19;4843738;29;20067;-83
2021/12/25 11:34:11;;;;;;;2.67;0.40;;;;;;;0.69;77.25;100754.31;5608196;24;20041;-80
2021/12/25 14:14:33;;;;;;;2.13;0.50;;;;;;;1.63;78.32;100768.72;5850337;24;20052;31
2021/12/25 14:16:59;;;;;;;4.75;0.70;;;;;;;1.56;79.67;100762.31;4770208;30;20316;-82
2021/12/25 14:29:46;;;;;;;8.30;0.98;;;;;;;-0.37;82.97;100488.53;5080392;24;20275;-82
2021/12/25 14:50:18;;;;;;;1.05;0.50;;;;;;;-0.59;82.14;100520.50;4830091;29;20039;-83
2021/12/25 14:52:43;;;;;;;5.20;3.33;;;;;;;1.23;82.31;100798.03;4825111;29;20044;-83
2021/12/25 14:57:44;;;;;;;23.90;13.57;;;;;;;-0.53;80.50;100514.66;4972237;24;20086;-83
2021/12/25 15:33:57;;;;;;;18.63;11.63;;;;;;;-0.86;81.16;100502.56;5337930;24;20051;-83
2021/12/25 15:41:36;;;;;;;8.40;3.90;;;;;;;0.81;81.22;100777.06;5084764;24;20098;-81
2021/12/25 15:44:01;;;;;;;20.73;13.48;;;;;;;0.69;81.73;100767.53;4796643;29;20047;-79
2021/12/25 15:46:27;;;;;;;17.08;9.10;;;;;;;0.69;81.21;100770.19;4825695;29;20049;-79
2021/12/25 15:48:52;;;;;;;14.90;3.85;;;;;;;0.69;81.24;100773.66;4790883;29;20035;-84
2021/12/25 15:59:03;;;;;;;2.53;1.60;;;;;;;-1.45;81.96;100475.88;5604651;24;20042;-83
2021/12/25 16:01:29;;;;;;;4.47;1.88;;;;;;;-1.32;82.35;100502.09;4840546;29;20067;-80
2021/12/25 16:03:55;;;;;;;5.72;1.52;;;;;;;0.50;82.45;100783.38;4847029;29;20033;-82
2021/12/25 16:06:21;;;;;;;3.38;0.93;;;;;;;-0.65;81.83;100609.06;5083622;24;20093;-82
2021/12/25 16:08:46;;;;;;;3.28;1.40;;;;;;;0.52;82.10;100774.34;4832596;29;20041;-83
2021/12/25 16:11:13;;;;;;;5.38;1.00;;;;;;;0.38;81.98;100746.44;4835334;29;20051;-81
2021/12/25 16:13:40;;;;;;;4.90;1.05;;;;;;;0.62;81.61;100782.31;4816159;29;20049;-81
2021/12/25 16:16:05;;;;;;;30.50;11.57;;;;;;;0.62;81.33;100771.72;4837502;29;20015;-82
2021/12/25 16:18:33;;;;;;;5.05;2.50;;;;;;;0.73;81.03;100776.91;4836235;29;20072;-80
2021/12/25 16:20:59;;;;;;;3.05;1.63;;;;;;;0.76;80.62;100773.97;4806487;29;20030;-80
2021/12/25 16:23:24;;;;;;;4.03;1.25;;;;;;;0.86;80.63;100781.94;4821054;29;20075;-80
2021/12/25 16:25:51;;;;;;;5.03;1.02;;;;;;;0.87;81.03;100778.34;4821244;29;20034;-81
2021/12/25 16:28:17;;;;;;;2.67;0.50;;;;;;;0.84;80.92;100776.78;4832368;29;20030;-79
2021/12/25 16:30:44;;;;;;;6.15;2.97;;;;;;;0.86;80.66;100774.84;4821698;29;20022;-80
2021/12/25 16:33:10;;;;;;;4.13;1.35;;;;;;;0.80;80.93;100767.44;4833076;29;20049;-83
2021/12/25 16:35:39;;;;;;;2.90;1.17;;;;;;;0.69;81.12;100759.59;4828947;29;20064;-81
2021/12/25 16:38:06;;;;;;;4.90;2.10;;;;;;;0.79;81.37;100778.16;4831953;29;20067;-80